sensor_id;sensor_type;location;lat;lon;timestamp;P1;durP1;ratioP1;P2;durP2;ratioP2
48516;SDS011;34310;51.904;4.256;2022-09-16T00:00:54;1.17;;;0.63;;
48516;SDS011;34310;51.904;4.256;2022-09-16T00:03:21;1.52;;;0.80;;
48516;SDS011;34310;51.904;4.256;2022-09-16T00:05:50;1.45;;;0.68;;
48516;SDS011;34310;51.904;4.256;2022-09-16T00:08:18;0.95;;;0.60;;
48516;SDS011;34310;51.904;4.256;2022-09-16T00:10:46;0.70;;;0.40;;
48516;SDS011;34310;51.904;4.256;2022-09-16T00:13:14;0.95;;;0.60;;
48516;SDS011;34310;51.904;4.256;2022-09-16T00:15:46;0.95;;;0.40;;
48516;SDS011;34310;51.904;4.256;2022-09-16T00:18:16;1.05;;;0.50;;
48516;SDS011;34310;51.904;4.256;2022-09-16T00:20:49;1.00;;;0.40;;
48516;SDS011;34310;51.904;4.256;2022-09-16T00:23:17;0.60;;;0.47;;
48516;SDS011;34310;51.904;4.256;2022-09-16T00:25:51;1.40;;;0.40;;
48516;SDS011;34310;51.904;4.256;2022-09-16T00:28:20;1.27;;;0.60;;
48516;SDS011;34310;51.904;4.256;2022-09-16T00:30:48;0.50;;;0.40;;
48516;SDS011;34310;51.904;4.256;2022-09-16T00:33:16;1.73;;;0.65;;
48516;SDS011;34310;51.904;4.256;2022-09-16T00:35:44;0.90;;;0.50;;
48516;SDS011;34310;51.904;4.256;2022-09-16T00:38:12;1.88;;;0.70;;
48516;SDS011;34310;51.904;4.256;2022-09-16T00:40:48;1.02;;;0.45;;
48516;SDS011;34310;51.904;4.256;2022-09-16T00:43:16;1.42;;;0.50;;
48516;SDS011;34310;51.904;4.256;2022-09-16T00:45:45;1.05;;;0.50;;
48516;SDS011;34310;51.904;4.256;2022-09-16T00:48:32;1.27;;;0.47;;
48516;SDS011;34310;51.904;4.256;2022-09-16T00:51:03;1.15;;;0.40;;
48516;SDS011;34310;51.904;4.256;2022-09-16T00:53:41;1.02;;;0.52;;
48516;SDS011;34310;51.904;4.256;2022-09-16T00:56:17;1.83;;;0.60;;
48516;SDS011;34310;51.904;4.256;2022-09-16T01:01:28;1.58;;;0.55;;
48516;SDS011;34310;51.904;4.256;2022-09-16T01:03:58;0.90;;;0.38;;
48516;SDS011;34310;51.904;4.256;2022-09-16T01:06:34;1.20;;;0.40;;
48516;SDS011;34310;51.904;4.256;2022-09-16T01:09:04;1.30;;;0.63;;
48516;SDS011;34310;51.904;4.256;2022-09-16T01:11:32;2.10;;;0.50;;
48516;SDS011;34310;51.904;4.256;2022-09-16T01:13:59;0.80;;;0.40;;
48516;SDS011;34310;51.904;4.256;2022-09-16T01:17:12;0.52;;;0.52;;
48516;SDS011;34310;51.904;4.256;2022-09-16T01:31:02;0.52;;;0.30;;
48516;SDS011;34310;51.904;4.256;2022-09-16T01:33:55;0.52;;;0.40;;
48516;SDS011;34310;51.904;4.256;2022-09-16T01:50:25;1.25;;;0.40;;
48516;SDS011;34310;51.904;4.256;2022-09-16T01:53:16;1.35;;;0.50;;
48516;SDS011;34310;51.904;4.256;2022-09-16T01:55:50;0.82;;;0.40;;
48516;SDS011;34310;51.904;4.256;2022-09-16T02:01:10;2.28;;;0.55;;
48516;SDS011;34310;51.904;4.256;2022-09-16T02:03:49;1.05;;;0.47;;
48516;SDS011;34310;51.904;4.256;2022-09-16T02:06:23;0.55;;;0.40;;
48516;SDS011;34310;51.904;4.256;2022-09-16T02:09:00;1.30;;;0.47;;
48516;SDS011;34310;51.904;4.256;2022-09-16T02:11:32;1.38;;;0.45;;
48516;SDS011;34310;51.904;4.256;2022-09-16T02:14:14;1.45;;;0.32;;
48516;SDS011;34310;51.904;4.256;2022-09-16T02:19:20;1.98;;;0.40;;
48516;SDS011;34310;51.904;4.256;2022-09-16T02:21:51;1.45;;;0.40;;
48516;SDS011;34310;51.904;4.256;2022-09-16T02:24:21;1.02;;;0.43;;
48516;SDS011;34310;51.904;4.256;2022-09-16T02:26:55;1.50;;;0.50;;
48516;SDS011;34310;51.904;4.256;2022-09-16T02:29:27;2.63;;;0.57;;
48516;SDS011;34310;51.904;4.256;2022-09-16T02:32:03;0.63;;;0.40;;
48516;SDS011;34310;51.904;4.256;2022-09-16T02:34:38;1.48;;;0.40;;
48516;SDS011;34310;51.904;4.256;2022-09-16T02:37:13;0.77;;;0.40;;
48516;SDS011;34310;51.904;4.256;2022-09-16T02:39:48;1.13;;;0.40;;
48516;SDS011;34310;51.904;4.256;2022-09-16T02:42:20;2.08;;;0.40;;
48516;SDS011;34310;51.904;4.256;2022-09-16T02:44:47;1.08;;;0.45;;
48516;SDS011;34310;51.904;4.256;2022-09-16T02:47:16;0.70;;;0.40;;
48516;SDS011;34310;51.904;4.256;2022-09-16T02:49:59;1.00;;;0.38;;
48516;SDS011;34310;51.904;4.256;2022-09-16T02:58:32;0.77;;;0.40;;
48516;SDS011;34310;51.904;4.256;2022-09-16T03:00:59;1.70;;;0.52;;
48516;SDS011;34310;51.904;4.256;2022-09-16T03:03:27;0.60;;;0.40;;
48516;SDS011;34310;51.904;4.256;2022-09-16T03:08:44;1.27;;;0.40;;
48516;SDS011;34310;51.904;4.256;2022-09-16T03:11:17;0.70;;;0.32;;
48516;SDS011;34310;51.904;4.256;2022-09-16T03:16:35;1.40;;;0.47;;
48516;SDS011;34310;51.904;4.256;2022-09-16T03:19:18;1.65;;;0.40;;
48516;SDS011;34310;51.904;4.256;2022-09-16T03:21:56;1.05;;;0.30;;
48516;SDS011;34310;51.904;4.256;2022-09-16T03:24:41;0.98;;;0.47;;
48516;SDS011;34310;51.904;4.256;2022-09-16T03:27:47;2.25;;;0.45;;
48516;SDS011;34310;51.904;4.256;2022-09-16T03:30:22;0.88;;;0.40;;
48516;SDS011;34310;51.904;4.256;2022-09-16T03:32:52;0.93;;;0.65;;
48516;SDS011;34310;51.904;4.256;2022-09-16T03:35:32;0.35;;;0.35;;
48516;SDS011;34310;51.904;4.256;2022-09-16T03:38:08;1.00;;;0.30;;
48516;SDS011;34310;51.904;4.256;2022-09-16T03:40:38;0.90;;;0.30;;
48516;SDS011;34310;51.904;4.256;2022-09-16T03:43:10;1.55;;;0.40;;
48516;SDS011;34310;51.904;4.256;2022-09-16T03:45:40;2.38;;;0.43;;
48516;SDS011;34310;51.904;4.256;2022-09-16T03:48:09;1.05;;;0.35;;
48516;SDS011;34310;51.904;4.256;2022-09-16T03:50:37;1.60;;;0.35;;
48516;SDS011;34310;51.904;4.256;2022-09-16T03:53:04;0.77;;;0.40;;
48516;SDS011;34310;51.904;4.256;2022-09-16T03:55:32;1.63;;;0.43;;
48516;SDS011;34310;51.904;4.256;2022-09-16T03:57:59;2.15;;;0.50;;
48516;SDS011;34310;51.904;4.256;2022-09-16T04:00:26;1.27;;;0.50;;
48516;SDS011;34310;51.904;4.256;2022-09-16T04:02:54;0.98;;;0.40;;
48516;SDS011;34310;51.904;4.256;2022-09-16T04:05:22;0.57;;;0.40;;
48516;SDS011;34310;51.904;4.256;2022-09-16T04:07:49;1.00;;;0.40;;
48516;SDS011;34310;51.904;4.256;2022-09-16T04:10:16;1.35;;;0.70;;
48516;SDS011;34310;51.904;4.256;2022-09-16T04:12:44;2.15;;;0.57;;
48516;SDS011;34310;51.904;4.256;2022-09-16T04:15:11;1.15;;;0.60;;
48516;SDS011;34310;51.904;4.256;2022-09-16T04:17:39;2.42;;;0.60;;
48516;SDS011;34310;51.904;4.256;2022-09-16T04:20:06;0.65;;;0.43;;
48516;SDS011;34310;51.904;4.256;2022-09-16T04:22:34;2.72;;;0.85;;
48516;SDS011;34310;51.904;4.256;2022-09-16T04:25:01;0.90;;;0.50;;
48516;SDS011;34310;51.904;4.256;2022-09-16T04:27:29;2.00;;;0.98;;
48516;SDS011;34310;51.904;4.256;2022-09-16T04:29:57;1.33;;;0.50;;
48516;SDS011;34310;51.904;4.256;2022-09-16T04:32:24;2.97;;;0.75;;
48516;SDS011;34310;51.904;4.256;2022-09-16T04:34:51;1.35;;;0.60;;
48516;SDS011;34310;51.904;4.256;2022-09-16T04:37:18;1.13;;;0.60;;
48516;SDS011;34310;51.904;4.256;2022-09-16T04:39:46;1.30;;;0.60;;
48516;SDS011;34310;51.904;4.256;2022-09-16T04:42:13;1.00;;;0.65;;
48516;SDS011;34310;51.904;4.256;2022-09-16T04:44:40;1.73;;;0.77;;
48516;SDS011;34310;51.904;4.256;2022-09-16T04:47:07;1.08;;;0.40;;
48516;SDS011;34310;51.904;4.256;2022-09-16T04:49:35;3.05;;;0.80;;
48516;SDS011;34310;51.904;4.256;2022-09-16T04:52:02;2.03;;;0.73;;
48516;SDS011;34310;51.904;4.256;2022-09-16T04:54:29;1.65;;;0.77;;
48516;SDS011;34310;51.904;4.256;2022-09-16T04:56:57;0.75;;;0.40;;
48516;SDS011;34310;51.904;4.256;2022-09-16T04:59:26;1.75;;;0.70;;
48516;SDS011;34310;51.904;4.256;2022-09-16T05:01:53;1.48;;;0.55;;
48516;SDS011;34310;51.904;4.256;2022-09-16T05:04:21;1.77;;;0.60;;
48516;SDS011;34310;51.904;4.256;2022-09-16T05:06:48;1.88;;;0.70;;
48516;SDS011;34310;51.904;4.256;2022-09-16T05:09:15;1.50;;;0.55;;
48516;SDS011;34310;51.904;4.256;2022-09-16T05:11:43;1.58;;;0.50;;
48516;SDS011;34310;51.904;4.256;2022-09-16T05:14:12;1.17;;;0.50;;
48516;SDS011;34310;51.904;4.256;2022-09-16T05:16:41;0.98;;;0.50;;
48516;SDS011;34310;51.904;4.256;2022-09-16T05:19:10;2.05;;;0.63;;
48516;SDS011;34310;51.904;4.256;2022-09-16T05:21:39;2.28;;;0.80;;
48516;SDS011;34310;51.904;4.256;2022-09-16T05:24:08;1.48;;;0.65;;
48516;SDS011;34310;51.904;4.256;2022-09-16T05:26:37;3.22;;;0.65;;
48516;SDS011;34310;51.904;4.256;2022-09-16T05:29:13;0.75;;;0.60;;
48516;SDS011;34310;51.904;4.256;2022-09-16T05:31:42;1.60;;;0.50;;
48516;SDS011;34310;51.904;4.256;2022-09-16T05:34:16;2.38;;;0.70;;
48516;SDS011;34310;51.904;4.256;2022-09-16T05:36:45;1.58;;;0.50;;
48516;SDS011;34310;51.904;4.256;2022-09-16T05:39:14;2.20;;;0.60;;
48516;SDS011;34310;51.904;4.256;2022-09-16T05:41:55;1.10;;;0.50;;
48516;SDS011;34310;51.904;4.256;2022-09-16T05:44:24;2.05;;;0.70;;
48516;SDS011;34310;51.904;4.256;2022-09-16T05:46:54;0.98;;;0.40;;
48516;SDS011;34310;51.904;4.256;2022-09-16T05:49:21;0.85;;;0.50;;
48516;SDS011;34310;51.904;4.256;2022-09-16T05:51:49;1.15;;;0.65;;
48516;SDS011;34310;51.904;4.256;2022-09-16T05:54:17;1.83;;;0.65;;
48516;SDS011;34310;51.904;4.256;2022-09-16T05:56:45;1.60;;;0.50;;
48516;SDS011;34310;51.904;4.256;2022-09-16T05:59:13;1.80;;;0.60;;
48516;SDS011;34310;51.904;4.256;2022-09-16T06:01:42;1.85;;;0.55;;
48516;SDS011;34310;51.904;4.256;2022-09-16T06:04:11;0.70;;;0.38;;
48516;SDS011;34310;51.904;4.256;2022-09-16T06:06:40;0.93;;;0.63;;
48516;SDS011;34310;51.904;4.256;2022-09-16T06:09:11;2.28;;;0.70;;
48516;SDS011;34310;51.904;4.256;2022-09-16T06:11:41;1.48;;;0.70;;
48516;SDS011;34310;51.904;4.256;2022-09-16T06:14:11;1.00;;;0.57;;
48516;SDS011;34310;51.904;4.256;2022-09-16T06:16:39;1.20;;;0.60;;
48516;SDS011;34310;51.904;4.256;2022-09-16T06:19:08;1.55;;;0.60;;
48516;SDS011;34310;51.904;4.256;2022-09-16T06:21:38;1.48;;;0.43;;
48516;SDS011;34310;51.904;4.256;2022-09-16T06:24:06;2.35;;;0.50;;
48516;SDS011;34310;51.904;4.256;2022-09-16T06:26:36;2.30;;;0.70;;
48516;SDS011;34310;51.904;4.256;2022-09-16T06:29:05;1.92;;;0.70;;
48516;SDS011;34310;51.904;4.256;2022-09-16T06:31:33;2.28;;;0.70;;
48516;SDS011;34310;51.904;4.256;2022-09-16T06:34:03;3.80;;;0.85;;
48516;SDS011;34310;51.904;4.256;2022-09-16T06:36:32;0.88;;;0.60;;
48516;SDS011;34310;51.904;4.256;2022-09-16T06:39:05;1.50;;;0.55;;
48516;SDS011;34310;51.904;4.256;2022-09-16T06:41:33;1.45;;;0.60;;
48516;SDS011;34310;51.904;4.256;2022-09-16T06:44:00;3.83;;;0.45;;
48516;SDS011;34310;51.904;4.256;2022-09-16T06:46:28;1.48;;;0.50;;
48516;SDS011;34310;51.904;4.256;2022-09-16T06:48:56;1.45;;;0.63;;
48516;SDS011;34310;51.904;4.256;2022-09-16T06:51:30;5.32;;;1.17;;
48516;SDS011;34310;51.904;4.256;2022-09-16T06:54:04;2.05;;;0.50;;
48516;SDS011;34310;51.904;4.256;2022-09-16T06:56:32;2.35;;;0.90;;
48516;SDS011;34310;51.904;4.256;2022-09-16T06:59:02;3.63;;;0.90;;
48516;SDS011;34310;51.904;4.256;2022-09-16T07:01:30;2.50;;;0.70;;
48516;SDS011;34310;51.904;4.256;2022-09-16T07:04:00;2.78;;;0.80;;
48516;SDS011;34310;51.904;4.256;2022-09-16T07:06:30;3.08;;;0.50;;
48516;SDS011;34310;51.904;4.256;2022-09-16T07:09:19;2.88;;;0.50;;
48516;SDS011;34310;51.904;4.256;2022-09-16T07:11:46;3.15;;;0.70;;
48516;SDS011;34310;51.904;4.256;2022-09-16T07:14:13;1.45;;;0.63;;
48516;SDS011;34310;51.904;4.256;2022-09-16T07:16:40;2.17;;;0.90;;
48516;SDS011;34310;51.904;4.256;2022-09-16T07:19:08;1.60;;;0.80;;
48516;SDS011;34310;51.904;4.256;2022-09-16T07:21:35;4.38;;;0.50;;
48516;SDS011;34310;51.904;4.256;2022-09-16T07:24:02;1.33;;;0.60;;
48516;SDS011;34310;51.904;4.256;2022-09-16T07:26:31;1.73;;;0.60;;
48516;SDS011;34310;51.904;4.256;2022-09-16T07:29:00;2.13;;;0.60;;
48516;SDS011;34310;51.904;4.256;2022-09-16T07:31:30;2.25;;;0.73;;
48516;SDS011;34310;51.904;4.256;2022-09-16T07:34:03;3.40;;;0.60;;
48516;SDS011;34310;51.904;4.256;2022-09-16T07:36:34;3.30;;;0.65;;
48516;SDS011;34310;51.904;4.256;2022-09-16T07:39:03;1.45;;;0.70;;
48516;SDS011;34310;51.904;4.256;2022-09-16T07:41:32;2.47;;;0.50;;
48516;SDS011;34310;51.904;4.256;2022-09-16T07:44:01;1.77;;;0.57;;
48516;SDS011;34310;51.904;4.256;2022-09-16T07:46:32;3.35;;;0.70;;
48516;SDS011;34310;51.904;4.256;2022-09-16T07:49:02;1.73;;;0.57;;
48516;SDS011;34310;51.904;4.256;2022-09-16T07:51:31;1.63;;;0.70;;
48516;SDS011;34310;51.904;4.256;2022-09-16T07:54:01;3.25;;;0.70;;
48516;SDS011;34310;51.904;4.256;2022-09-16T07:56:31;1.95;;;0.70;;
48516;SDS011;34310;51.904;4.256;2022-09-16T07:59:01;2.60;;;1.02;;
48516;SDS011;34310;51.904;4.256;2022-09-16T08:01:30;2.78;;;0.80;;
48516;SDS011;34310;51.904;4.256;2022-09-16T08:03:58;2.53;;;0.63;;
48516;SDS011;34310;51.904;4.256;2022-09-16T08:06:27;2.50;;;0.80;;
48516;SDS011;34310;51.904;4.256;2022-09-16T08:08:56;2.20;;;0.60;;
48516;SDS011;34310;51.904;4.256;2022-09-16T08:11:45;1.77;;;0.60;;
48516;SDS011;34310;51.904;4.256;2022-09-16T08:14:12;1.65;;;0.50;;
48516;SDS011;34310;51.904;4.256;2022-09-16T08:16:39;3.45;;;0.90;;
48516;SDS011;34310;51.904;4.256;2022-09-16T08:19:07;2.78;;;0.90;;
48516;SDS011;34310;51.904;4.256;2022-09-16T08:21:35;2.40;;;0.63;;
48516;SDS011;34310;51.904;4.256;2022-09-16T08:24:02;2.00;;;0.60;;
48516;SDS011;34310;51.904;4.256;2022-09-16T08:26:29;2.58;;;0.68;;
48516;SDS011;34310;51.904;4.256;2022-09-16T08:28:57;1.92;;;0.90;;
48516;SDS011;34310;51.904;4.256;2022-09-16T08:31:40;2.08;;;1.00;;
48516;SDS011;34310;51.904;4.256;2022-09-16T08:34:07;1.95;;;0.88;;
48516;SDS011;34310;51.904;4.256;2022-09-16T08:36:34;2.88;;;0.73;;
48516;SDS011;34310;51.904;4.256;2022-09-16T08:39:02;1.30;;;0.93;;
48516;SDS011;34310;51.904;4.256;2022-09-16T08:44:26;5.07;;;1.25;;
48516;SDS011;34310;51.904;4.256;2022-09-16T08:47:25;2.58;;;0.88;;
48516;SDS011;34310;51.904;4.256;2022-09-16T08:50:17;2.47;;;0.68;;
48516;SDS011;34310;51.904;4.256;2022-09-16T08:52:51;3.53;;;0.80;;
48516;SDS011;34310;51.904;4.256;2022-09-16T08:58:08;1.35;;;0.63;;
48516;SDS011;34310;51.904;4.256;2022-09-16T09:00:36;3.35;;;0.68;;
48516;SDS011;34310;51.904;4.256;2022-09-16T09:06:21;1.38;;;0.55;;
48516;SDS011;34310;51.904;4.256;2022-09-16T09:09:19;1.77;;;0.68;;
48516;SDS011;34310;51.904;4.256;2022-09-16T09:14:47;1.85;;;0.60;;
48516;SDS011;34310;51.904;4.256;2022-09-16T09:20:21;2.03;;;0.50;;
48516;SDS011;34310;51.904;4.256;2022-09-16T09:31:44;1.73;;;0.70;;
48516;SDS011;34310;51.904;4.256;2022-09-16T09:37:18;3.17;;;0.60;;
48516;SDS011;34310;51.904;4.256;2022-09-16T09:40:54;1.92;;;0.70;;
48516;SDS011;34310;51.904;4.256;2022-09-16T09:45:57;1.08;;;0.50;;
48516;SDS011;34310;51.904;4.256;2022-09-16T09:48:37;2.65;;;0.70;;
48516;SDS011;34310;51.904;4.256;2022-09-16T09:57:13;5.53;;;0.95;;
48516;SDS011;34310;51.904;4.256;2022-09-16T10:02:41;2.53;;;0.80;;
48516;SDS011;34310;51.904;4.256;2022-09-16T10:07:46;4.75;;;0.98;;
48516;SDS011;34310;51.904;4.256;2022-09-16T10:10:18;2.33;;;0.60;;
48516;SDS011;34310;51.904;4.256;2022-09-16T10:12:51;1.42;;;0.68;;
48516;SDS011;34310;51.904;4.256;2022-09-16T10:15:23;2.40;;;0.85;;
48516;SDS011;34310;51.904;4.256;2022-09-16T10:17:56;2.58;;;0.70;;
48516;SDS011;34310;51.904;4.256;2022-09-16T10:20:28;2.45;;;0.63;;
48516;SDS011;34310;51.904;4.256;2022-09-16T10:23:05;0.82;;;0.60;;
48516;SDS011;34310;51.904;4.256;2022-09-16T10:25:37;3.05;;;0.80;;
48516;SDS011;34310;51.904;4.256;2022-09-16T10:28:16;2.30;;;0.70;;
48516;SDS011;34310;51.904;4.256;2022-09-16T10:30:47;3.53;;;0.70;;
48516;SDS011;34310;51.904;4.256;2022-09-16T10:33:24;2.10;;;0.50;;
48516;SDS011;34310;51.904;4.256;2022-09-16T10:36:06;2.85;;;0.90;;
48516;SDS011;34310;51.904;4.256;2022-09-16T10:38:36;1.67;;;0.70;;
48516;SDS011;34310;51.904;4.256;2022-09-16T10:41:17;3.00;;;0.90;;
48516;SDS011;34310;51.904;4.256;2022-09-16T10:44:01;2.05;;;0.60;;
48516;SDS011;34310;51.904;4.256;2022-09-16T10:46:32;1.65;;;0.63;;
48516;SDS011;34310;51.904;4.256;2022-09-16T10:49:07;3.25;;;0.88;;
48516;SDS011;34310;51.904;4.256;2022-09-16T10:51:37;1.77;;;0.68;;
48516;SDS011;34310;51.904;4.256;2022-09-16T10:54:04;4.05;;;0.80;;
48516;SDS011;34310;51.904;4.256;2022-09-16T10:56:33;2.97;;;0.90;;
48516;SDS011;34310;51.904;4.256;2022-09-16T10:59:13;2.15;;;0.65;;
48516;SDS011;34310;51.904;4.256;2022-09-16T11:04:32;2.60;;;1.00;;
48516;SDS011;34310;51.904;4.256;2022-09-16T11:07:07;2.05;;;0.70;;
48516;SDS011;34310;51.904;4.256;2022-09-16T11:32:12;4.22;;;1.00;;
48516;SDS011;34310;51.904;4.256;2022-09-16T11:38:17;7.03;;;1.40;;
48516;SDS011;34310;51.904;4.256;2022-09-16T11:41:16;5.70;;;1.15;;
48516;SDS011;34310;51.904;4.256;2022-09-16T11:55:15;4.57;;;0.90;;
48516;SDS011;34310;51.904;4.256;2022-09-16T11:57:47;3.08;;;1.00;;
48516;SDS011;34310;51.904;4.256;2022-09-16T12:00:22;4.65;;;1.23;;
48516;SDS011;34310;51.904;4.256;2022-09-16T12:05:28;3.08;;;1.05;;
48516;SDS011;34310;51.904;4.256;2022-09-16T12:08:24;3.53;;;0.82;;
48516;SDS011;34310;51.904;4.256;2022-09-16T12:13:57;3.45;;;0.60;;
48516;SDS011;34310;51.904;4.256;2022-09-16T12:16:35;3.30;;;1.00;;
48516;SDS011;34310;51.904;4.256;2022-09-16T12:19:22;1.83;;;0.85;;
48516;SDS011;34310;51.904;4.256;2022-09-16T12:21:59;4.05;;;0.90;;
48516;SDS011;34310;51.904;4.256;2022-09-16T12:32:49;4.57;;;1.10;;
48516;SDS011;34310;51.904;4.256;2022-09-16T12:35:27;2.47;;;0.87;;
48516;SDS011;34310;51.904;4.256;2022-09-16T12:38:01;1.83;;;0.90;;
48516;SDS011;34310;51.904;4.256;2022-09-16T12:40:42;3.22;;;0.95;;
48516;SDS011;34310;51.904;4.256;2022-09-16T12:43:45;1.70;;;0.80;;
48516;SDS011;34310;51.904;4.256;2022-09-16T12:47:11;1.30;;;0.57;;
48516;SDS011;34310;51.904;4.256;2022-09-16T12:52:45;2.53;;;0.90;;
48516;SDS011;34310;51.904;4.256;2022-09-16T12:58:23;2.47;;;0.88;;
48516;SDS011;34310;51.904;4.256;2022-09-16T13:03:40;1.63;;;0.60;;
48516;SDS011;34310;51.904;4.256;2022-09-16T13:06:17;2.53;;;1.00;;
48516;SDS011;34310;51.904;4.256;2022-09-16T13:08:54;1.80;;;0.80;;
48516;SDS011;34310;51.904;4.256;2022-09-16T13:11:31;1.17;;;0.50;;
48516;SDS011;34310;51.904;4.256;2022-09-16T13:14:20;2.05;;;0.60;;
48516;SDS011;34310;51.904;4.256;2022-09-16T13:16:51;1.83;;;0.50;;
48516;SDS011;34310;51.904;4.256;2022-09-16T13:22:23;2.80;;;0.85;;
48516;SDS011;34310;51.904;4.256;2022-09-16T13:31:08;2.90;;;0.80;;
48516;SDS011;34310;51.904;4.256;2022-09-16T13:33:36;2.30;;;0.50;;
48516;SDS011;34310;51.904;4.256;2022-09-16T13:39:10;1.65;;;0.70;;
48516;SDS011;34310;51.904;4.256;2022-09-16T13:46:52;2.63;;;0.90;;
48516;SDS011;34310;51.904;4.256;2022-09-16T13:49:21;2.63;;;1.10;;
48516;SDS011;34310;51.904;4.256;2022-09-16T13:51:51;25.77;;;2.30;;
48516;SDS011;34310;51.904;4.256;2022-09-16T13:54:25;15.65;;;1.65;;
48516;SDS011;34310;51.904;4.256;2022-09-16T14:05:17;16.58;;;1.83;;
48516;SDS011;34310;51.904;4.256;2022-09-16T14:11:08;9.85;;;2.10;;
48516;SDS011;34310;51.904;4.256;2022-09-16T14:13:46;22.15;;;2.55;;
48516;SDS011;34310;51.904;4.256;2022-09-16T14:16:19;23.17;;;3.50;;
48516;SDS011;34310;51.904;4.256;2022-09-16T14:18:59;25.92;;;3.60;;
48516;SDS011;34310;51.904;4.256;2022-09-16T14:21:45;22.42;;;2.97;;
48516;SDS011;34310;51.904;4.256;2022-09-16T14:24:39;19.70;;;3.22;;
48516;SDS011;34310;51.904;4.256;2022-09-16T14:27:18;20.75;;;3.08;;
48516;SDS011;34310;51.904;4.256;2022-09-16T14:29:56;15.85;;;2.83;;
48516;SDS011;34310;51.904;4.256;2022-09-16T14:32:26;16.42;;;2.88;;
48516;SDS011;34310;51.904;4.256;2022-09-16T14:34:56;14.15;;;1.90;;
48516;SDS011;34310;51.904;4.256;2022-09-16T14:37:28;9.90;;;2.20;;
48516;SDS011;34310;51.904;4.256;2022-09-16T14:40:01;10.68;;;1.92;;
48516;SDS011;34310;51.904;4.256;2022-09-16T14:42:36;10.15;;;1.70;;
48516;SDS011;34310;51.904;4.256;2022-09-16T14:45:13;10.82;;;1.85;;
48516;SDS011;34310;51.904;4.256;2022-09-16T14:47:45;7.63;;;1.40;;
48516;SDS011;34310;51.904;4.256;2022-09-16T14:52:54;4.82;;;1.02;;
48516;SDS011;34310;51.904;4.256;2022-09-16T14:55:27;10.13;;;1.30;;
48516;SDS011;34310;51.904;4.256;2022-09-16T14:57:57;7.60;;;1.48;;
48516;SDS011;34310;51.904;4.256;2022-09-16T15:00:30;6.72;;;1.35;;
48516;SDS011;34310;51.904;4.256;2022-09-16T15:06:33;5.43;;;1.40;;
48516;SDS011;34310;51.904;4.256;2022-09-16T15:09:28;7.68;;;1.48;;
48516;SDS011;34310;51.904;4.256;2022-09-16T15:12:02;3.53;;;1.10;;
48516;SDS011;34310;51.904;4.256;2022-09-16T15:14:30;6.43;;;1.60;;
48516;SDS011;34310;51.904;4.256;2022-09-16T15:17:02;3.83;;;1.10;;
48516;SDS011;34310;51.904;4.256;2022-09-16T15:19:36;3.22;;;0.80;;
48516;SDS011;34310;51.904;4.256;2022-09-16T15:22:07;4.50;;;1.15;;
48516;SDS011;34310;51.904;4.256;2022-09-16T15:24:39;3.95;;;1.00;;
48516;SDS011;34310;51.904;4.256;2022-09-16T15:27:07;4.55;;;1.00;;
48516;SDS011;34310;51.904;4.256;2022-09-16T15:29:45;5.88;;;1.45;;
48516;SDS011;34310;51.904;4.256;2022-09-16T15:34:43;4.57;;;1.00;;
48516;SDS011;34310;51.904;4.256;2022-09-16T15:37:30;3.13;;;1.08;;
48516;SDS011;34310;51.904;4.256;2022-09-16T15:40:08;4.13;;;1.10;;
48516;SDS011;34310;51.904;4.256;2022-09-16T15:42:59;6.03;;;1.00;;
48516;SDS011;34310;51.904;4.256;2022-09-16T15:45:27;4.63;;;0.85;;
48516;SDS011;34310;51.904;4.256;2022-09-16T15:48:01;2.95;;;0.73;;
48516;SDS011;34310;51.904;4.256;2022-09-16T15:50:38;4.15;;;1.02;;
48516;SDS011;34310;51.904;4.256;2022-09-16T15:53:12;3.67;;;0.90;;
48516;SDS011;34310;51.904;4.256;2022-09-16T15:58:17;2.95;;;1.02;;
48516;SDS011;34310;51.904;4.256;2022-09-16T16:14:37;3.88;;;0.88;;
48516;SDS011;34310;51.904;4.256;2022-09-16T16:17:15;4.25;;;1.00;;
48516;SDS011;34310;51.904;4.256;2022-09-16T16:19:45;3.80;;;0.90;;
48516;SDS011;34310;51.904;4.256;2022-09-16T16:22:15;3.13;;;0.80;;
48516;SDS011;34310;51.904;4.256;2022-09-16T16:24:43;4.03;;;0.80;;
48516;SDS011;34310;51.904;4.256;2022-09-16T16:27:10;6.53;;;1.20;;
48516;SDS011;34310;51.904;4.256;2022-09-16T16:29:37;3.35;;;0.90;;
48516;SDS011;34310;51.904;4.256;2022-09-16T16:32:12;2.00;;;0.80;;
48516;SDS011;34310;51.904;4.256;2022-09-16T16:34:41;5.30;;;0.80;;
48516;SDS011;34310;51.904;4.256;2022-09-16T16:37:10;3.53;;;0.82;;
48516;SDS011;34310;51.904;4.256;2022-09-16T16:40:00;4.00;;;0.90;;
48516;SDS011;34310;51.904;4.256;2022-09-16T16:42:28;3.90;;;1.05;;
48516;SDS011;34310;51.904;4.256;2022-09-16T16:44:56;2.33;;;0.80;;
48516;SDS011;34310;51.904;4.256;2022-09-16T16:47:23;2.63;;;0.90;;
48516;SDS011;34310;51.904;4.256;2022-09-16T16:49:51;6.65;;;1.15;;
48516;SDS011;34310;51.904;4.256;2022-09-16T16:52:19;5.65;;;0.82;;
48516;SDS011;34310;51.904;4.256;2022-09-16T16:54:46;4.20;;;1.05;;
48516;SDS011;34310;51.904;4.256;2022-09-16T16:57:13;8.13;;;1.15;;
48516;SDS011;34310;51.904;4.256;2022-09-16T16:59:40;4.25;;;0.73;;
48516;SDS011;34310;51.904;4.256;2022-09-16T17:02:08;4.45;;;0.88;;
48516;SDS011;34310;51.904;4.256;2022-09-16T17:04:36;9.77;;;1.10;;
48516;SDS011;34310;51.904;4.256;2022-09-16T17:07:04;5.38;;;1.15;;
48516;SDS011;34310;51.904;4.256;2022-09-16T17:09:51;3.35;;;1.02;;
48516;SDS011;34310;51.904;4.256;2022-09-16T17:12:18;3.58;;;1.00;;
48516;SDS011;34310;51.904;4.256;2022-09-16T17:14:46;4.50;;;1.42;;
48516;SDS011;34310;51.904;4.256;2022-09-16T17:17:13;2.15;;;0.90;;
48516;SDS011;34310;51.904;4.256;2022-09-16T17:19:40;5.63;;;1.20;;
48516;SDS011;34310;51.904;4.256;2022-09-16T17:22:07;5.78;;;1.15;;
48516;SDS011;34310;51.904;4.256;2022-09-16T17:24:34;6.35;;;1.17;;
48516;SDS011;34310;51.904;4.256;2022-09-16T17:27:02;6.82;;;1.00;;
48516;SDS011;34310;51.904;4.256;2022-09-16T17:29:29;6.72;;;1.20;;
48516;SDS011;34310;51.904;4.256;2022-09-16T17:31:56;7.55;;;1.05;;
48516;SDS011;34310;51.904;4.256;2022-09-16T17:34:27;5.90;;;1.00;;
48516;SDS011;34310;51.904;4.256;2022-09-16T17:36:55;6.70;;;1.35;;
48516;SDS011;34310;51.904;4.256;2022-09-16T17:39:23;11.15;;;1.38;;
48516;SDS011;34310;51.904;4.256;2022-09-16T17:41:51;13.07;;;1.60;;
48516;SDS011;34310;51.904;4.256;2022-09-16T17:44:21;15.48;;;1.60;;
48516;SDS011;34310;51.904;4.256;2022-09-16T17:46:49;8.10;;;1.25;;
48516;SDS011;34310;51.904;4.256;2022-09-16T17:49:20;7.15;;;1.38;;
48516;SDS011;34310;51.904;4.256;2022-09-16T17:51:49;10.10;;;1.58;;
48516;SDS011;34310;51.904;4.256;2022-09-16T17:54:17;7.60;;;1.25;;
48516;SDS011;34310;51.904;4.256;2022-09-16T17:56:45;5.55;;;1.10;;
48516;SDS011;34310;51.904;4.256;2022-09-16T17:59:14;13.68;;;1.65;;
48516;SDS011;34310;51.904;4.256;2022-09-16T18:01:43;9.75;;;1.45;;
48516;SDS011;34310;51.904;4.256;2022-09-16T18:04:11;9.82;;;1.55;;
48516;SDS011;34310;51.904;4.256;2022-09-16T18:06:39;17.92;;;1.83;;
48516;SDS011;34310;51.904;4.256;2022-09-16T18:09:08;9.82;;;1.50;;
48516;SDS011;34310;51.904;4.256;2022-09-16T18:11:36;6.45;;;1.35;;
48516;SDS011;34310;51.904;4.256;2022-09-16T18:14:05;11.00;;;1.50;;
48516;SDS011;34310;51.904;4.256;2022-09-16T18:16:35;8.18;;;1.38;;
48516;SDS011;34310;51.904;4.256;2022-09-16T18:19:03;7.10;;;1.55;;
48516;SDS011;34310;51.904;4.256;2022-09-16T18:21:30;13.20;;;1.60;;
48516;SDS011;34310;51.904;4.256;2022-09-16T18:23:59;7.13;;;1.10;;
48516;SDS011;34310;51.904;4.256;2022-09-16T18:26:28;7.00;;;1.13;;
48516;SDS011;34310;51.904;4.256;2022-09-16T18:28:56;7.90;;;1.25;;
48516;SDS011;34310;51.904;4.256;2022-09-16T18:31:44;6.35;;;1.30;;
48516;SDS011;34310;51.904;4.256;2022-09-16T18:34:13;12.77;;;1.45;;
48516;SDS011;34310;51.904;4.256;2022-09-16T18:36:41;6.28;;;1.45;;
48516;SDS011;34310;51.904;4.256;2022-09-16T18:39:14;10.20;;;1.50;;